Terminal Aerodrome Forecast
Issued by NWS

Home | Current Version | Previous Version | Text Only | Print | Product List | Glossary On
Versions: 1 2 3 4 5 6 7 8 9 10 11 12 13 14 15 16 17 18 19
000
FTUS43 KDVN 211700
TAFBRL
TAF
KBRL 211732Z 2118/2218 17012KT P6SM OVC020
     FM220100 16011KT 5SM -DZ BR OVC008
     FM220700 15011KT 3SM -RADZ BR OVC004
     FM221200 14012KT 2SM -RA BR OVC004=

USA.gov is the U.S. government's official web portal to all federal, state and local government web resources and services.